Time;durP1;ratioP1;P1;durP2;ratioP2;P2;SDS_P1;SDS_P2;PMS_P1;PMS_P2;Temp;Humidity;BMP_temperature;BMP_pressure;BME280_temperature;BME280_humidity;BME280_pressure;Samples;Min_cycle;Max_cycle;Signal;HPM_P1;HPM_P2
2022/02/09 00:00:09;;;;;;;3.50;0.60;;;;;;;8.66;83.46;101083.50;2086769;28;20052;-79
2022/02/09 00:01:23;;;;;;;3.05;0.70;;;;;;;8.65;83.38;101073.81;2080641;28;20045;-79
2022/02/09 00:03:52;;;;;;;7.55;1.65;;;;;;;8.59;83.35;101077.16;2088662;28;20116;-79
2022/02/09 00:06:28;;;;;;;4.05;1.13;;;;;;;8.56;83.00;101071.81;2095612;28;20169;-81
2022/02/09 00:07:36;;;;;;;5.30;1.52;;;;;;;8.56;83.06;101092.84;2085984;28;20044;-80
2022/02/09 00:08:39;;;;;;;4.07;1.63;;;;;;;8.56;83.10;101070.91;2089273;28;20405;-80
2022/02/09 00:09:44;;;;;;;3.05;0.93;;;;;;;8.58;83.22;101056.06;2088995;28;20045;-80
2022/02/09 00:10:49;;;;;;;2.90;0.85;;;;;;;8.57;82.91;101072.69;2081023;28;20037;-80
2022/02/09 00:12:02;;;;;;;2.08;0.95;;;;;;;8.57;82.59;101070.06;2072930;28;20041;-79
2022/02/09 00:13:30;;;;;;;2.80;0.50;;;;;;;8.54;82.36;101078.75;2090206;28;20119;-79
2022/02/09 00:14:43;;;;;;;3.88;1.23;;;;;;;8.56;82.28;101077.06;2084968;28;20048;-79
2022/02/09 00:15:52;;;;;;;2.88;1.00;;;;;;;8.54;82.23;101089.28;2073919;28;20042;-80
2022/02/09 00:18:20;;;;;;;2.85;0.70;;;;;;;8.52;81.94;101074.31;2057716;28;20101;-79
2022/02/09 00:19:28;;;;;;;4.45;0.82;;;;;;;8.53;81.63;101091.88;2081752;28;20120;-79
2022/02/09 00:21:06;;;;;;;1.55;0.55;;;;;;;8.55;81.73;101084.91;2087079;28;20049;-80
2022/02/09 00:22:20;;;;;;;2.15;0.63;;;;;;;8.58;81.92;101100.78;2082287;28;20069;-80
2022/02/09 00:23:43;;;;;;;1.38;0.57;;;;;;;8.61;81.64;101099.13;2082078;28;20037;-80
2022/02/09 00:33:16;;;;;;;2.58;0.70;;;;;;;8.38;81.70;101121.25;2085298;28;20121;-79
2022/02/09 00:40:42;;;;;;;3.92;0.75;;;;;;;8.45;81.65;101146.91;2064470;28;20048;-80
2022/02/09 00:43:25;;;;;;;1.98;0.40;;;;;;;8.41;81.19;101155.53;2079228;28;20042;-80
2022/02/09 01:12:02;;;;;;;8.07;1.33;;;;;;;8.20;82.02;101142.59;2080220;28;20048;-85
2022/02/09 01:39:01;;;;;;;5.00;1.02;;;;;;;8.49;83.66;101154.03;2081517;28;20044;-78
2022/02/09 01:40:16;;;;;;;2.28;1.13;;;;;;;8.51;83.80;101136.56;2088860;28;20048;-78
2022/02/09 01:56:14;;;;;;;3.28;0.90;;;;;;;8.38;82.28;101158.97;2069011;28;20050;-77
2022/02/09 01:57:18;;;;;;;5.57;1.55;;;;;;;8.37;81.94;101158.91;2062262;28;20494;-78
2022/02/09 01:58:22;;;;;;;7.47;1.20;;;;;;;8.37;81.11;101157.19;2083748;28;20041;-78
2022/02/09 01:59:24;;;;;;;3.03;1.08;;;;;;;8.38;80.86;101158.06;2087405;28;20041;-77
2022/02/09 02:00:27;;;;;;;4.25;1.23;;;;;;;8.38;80.51;101160.72;2087654;28;20464;-77
2022/02/09 02:01:35;;;;;;;1.85;1.00;;;;;;;8.38;80.58;101171.22;2088459;28;20037;-78
2022/02/09 02:02:38;;;;;;;5.80;1.17;;;;;;;8.41;80.58;101173.94;2087275;28;20509;-78
2022/02/09 02:03:40;;;;;;;1.15;0.65;;;;;;;8.43;80.84;101177.53;2079593;28;20069;-77
2022/02/09 02:04:47;;;;;;;0.85;0.60;;;;;;;8.48;80.65;101162.75;2079337;28;20432;-77
2022/02/09 02:05:49;;;;;;;8.35;1.10;;;;;;;8.51;80.74;101178.66;2079078;28;20042;-76
2022/02/09 02:06:52;;;;;;;5.03;1.83;;;;;;;8.52;79.91;101167.28;2079482;28;20125;-77
2022/02/09 02:07:58;;;;;;;2.30;0.60;;;;;;;8.54;79.51;101178.72;2079208;28;20629;-76
2022/02/09 02:09:01;;;;;;;3.60;0.82;;;;;;;8.54;79.67;101185.72;2079534;28;20049;-76
2022/02/09 02:10:08;;;;;;;5.03;0.93;;;;;;;8.56;79.58;101198.09;2062969;28;20038;-76
2022/02/09 02:11:17;;;;;;;3.55;1.00;;;;;;;8.57;79.64;101188.47;2064656;28;20047;-77
2022/02/09 02:12:22;;;;;;;4.53;1.45;;;;;;;8.56;79.65;101187.56;2078757;28;20041;-77
2022/02/09 02:13:40;;;;;;;2.28;1.05;;;;;;;8.60;79.43;101199.09;2079182;28;20086;-76
2022/02/09 02:14:47;;;;;;;3.00;1.40;;;;;;;8.58;79.24;101175.38;2081754;28;20132;-78
2022/02/09 02:16:13;;;;;;;6.50;1.08;;;;;;;8.61;78.89;101185.06;2070805;28;20038;-78
2022/02/09 02:17:23;;;;;;;9.63;1.27;;;;;;;8.63;78.41;101178.13;2073813;28;20065;-82
2022/02/09 02:18:26;;;;;;;7.50;1.25;;;;;;;8.65;78.56;101160.66;2086418;28;20061;-78
2022/02/09 02:19:34;;;;;;;1.88;0.80;;;;;;;8.65;78.07;101137.84;2087377;28;20048;-77
2022/02/09 02:21:28;;;;;;;6.68;1.00;;;;;;;8.72;78.07;101171.41;2103527;27;20470;-79
2022/02/09 02:22:44;;;;;;;2.08;0.88;;;;;;;8.75;78.52;101147.78;2102910;28;20598;-78
2022/02/09 02:24:10;;;;;;;4.40;0.70;;;;;;;8.72;78.35;101168.78;2102991;28;20055;-77
2022/02/09 02:26:44;;;;;;;4.72;0.93;;;;;;;8.67;77.20;101179.97;2096299;28;20056;-77
2022/02/09 02:28:18;;;;;;;4.25;0.95;;;;;;;8.64;76.93;101182.53;2099383;28;20102;-77
2022/02/09 02:29:53;;;;;;;1.17;0.32;;;;;;;8.60;76.83;101199.09;2103090;28;20040;-78
2022/02/09 02:33:58;;;;;;;3.35;0.68;;;;;;;8.50;76.37;101200.53;2088205;28;20599;-79
2022/02/09 02:35:50;;;;;;;1.30;0.57;;;;;;;8.51;76.64;101194.44;2102714;28;20116;-78
2022/02/09 02:37:13;;;;;;;6.13;1.00;;;;;;;8.54;76.64;101217.28;2093674;28;20044;-79
2022/02/09 02:38:56;;;;;;;8.65;1.42;;;;;;;8.61;76.81;101203.50;2095216;28;20051;-79
2022/02/09 02:43:26;;;;;;;3.08;2.17;;;;;;;8.67;77.54;101208.94;2089189;28;20053;-79
2022/02/09 02:59:33;;;;;;;0.60;0.30;;;;;;;8.90;76.26;101207.00;2102080;28;20460;-79
2022/02/09 03:11:31;;;;;;;4.55;1.33;;;;;;;9.01;75.60;101216.09;2101981;28;20063;-80
2022/02/09 03:12:38;;;;;;;3.15;0.60;;;;;;;8.99;74.65;101212.56;2102652;28;20119;-78
2022/02/09 03:13:51;;;;;;;2.80;1.30;;;;;;;8.99;74.46;101217.81;2110863;28;20040;-78
2022/02/09 03:14:59;;;;;;;4.50;1.00;;;;;;;8.99;74.34;101230.97;2099112;28;20040;-77
2022/02/09 03:16:06;;;;;;;4.72;1.30;;;;;;;8.98;74.27;101219.56;2092285;28;20041;-78
2022/02/09 03:17:12;;;;;;;1.60;0.52;;;;;;;9.00;73.96;101223.09;2102567;28;20588;-78
2022/02/09 03:19:56;;;;;;;6.18;1.02;;;;;;;9.02;71.59;101210.00;2067762;28;20038;-78
2022/02/09 03:21:02;;;;;;;8.02;1.27;;;;;;;9.05;71.18;101228.53;2068699;28;20137;-78
2022/02/09 03:23:41;;;;;;;2.03;0.82;;;;;;;9.07;70.88;101221.53;2083527;28;20512;-77
2022/02/09 03:25:02;;;;;;;;;;;;;;;9.10;70.87;101238.34;2098122;28;20044;-78
2022/02/09 03:26:27;;;;;;;1.85;0.75;;;;;;;9.08;70.74;101242.66;2103515;28;19997;-78
2022/02/09 03:27:45;;;;;;;4.35;1.05;;;;;;;9.07;71.22;101240.88;2110455;28;20039;-77
2022/02/09 03:42:21;;;;;;;6.88;0.88;;;;;;;9.13;71.87;101233.13;2098133;28;20075;-78
2022/02/09 03:42:40;;;;;;;3.40;1.20;;;;;;;9.20;71.21;101279.88;2099858;28;20124;-78
2022/02/09 03:44:02;;;;;;;6.82;1.45;;;;;;;9.22;71.25;101244.78;2090459;28;20045;-78
2022/02/09 03:47:07;;;;;;;5.13;1.65;;;;;;;9.25;70.93;101258.97;2070114;28;20042;-77
2022/02/09 03:48:29;;;;;;;0.77;0.63;;;;;;;9.25;71.27;101282.66;2082325;28;20041;-77
2022/02/09 03:49:41;;;;;;;3.47;1.00;;;;;;;9.25;70.91;101261.59;2089842;28;20060;-77
2022/02/09 03:50:56;;;;;;;2.53;0.85;;;;;;;9.27;70.51;101253.72;2100617;28;20089;-78
2022/02/09 03:52:05;;;;;;;5.82;1.80;;;;;;;9.28;70.92;101266.03;2103258;28;20039;-78
2022/02/09 03:54:41;;;;;;;4.68;1.08;;;;;;;9.30;70.30;101269.63;2091720;28;20447;-78
2022/02/09 03:55:59;;;;;;;3.95;1.10;;;;;;;9.31;70.45;101279.31;2078079;28;20042;-78
2022/02/09 03:57:10;;;;;;;4.22;1.20;;;;;;;9.32;69.49;101262.66;2091775;28;20446;-77
2022/02/09 03:58:12;;;;;;;4.70;2.00;;;;;;;9.30;69.71;101295.97;2105659;28;20506;-77
2022/02/09 03:59:14;;;;;;;;;;;;;;;9.34;70.03;101303.09;2096821;28;20071;-78
2022/02/09 04:00:18;;;;;;;5.43;1.50;;;;;;;9.32;70.01;101266.16;2096555;28;19945;-78
2022/02/09 04:01:23;;;;;;;5.32;1.35;;;;;;;9.31;70.32;101277.59;2097105;28;20049;-78
2022/02/09 04:02:26;;;;;;;1.65;0.75;;;;;;;9.30;69.96;101291.59;2098476;28;20097;-77
2022/02/09 04:03:28;;;;;;;3.85;1.17;;;;;;;9.30;69.97;101296.88;2096779;28;20051;-77
2022/02/09 04:04:31;;;;;;;3.95;1.08;;;;;;;9.30;70.01;101286.31;2097172;28;20136;-77
2022/02/09 04:05:32;;;;;;;5.28;0.85;;;;;;;9.30;70.48;101304.78;2094085;28;22316;-77
2022/02/09 04:06:37;;;;;;;4.70;1.38;;;;;;;9.31;69.98;101282.84;2096446;28;20400;-78
2022/02/09 04:07:38;;;;;;;5.25;1.75;;;;;;;9.30;68.63;101283.69;2104442;28;20053;-77
2022/02/09 04:08:48;;;;;;;4.25;0.98;;;;;;;9.31;68.32;101279.31;2098341;28;20248;-77
2022/02/09 04:09:54;;;;;;;13.77;2.63;;;;;;;9.31;68.56;101292.50;2089925;28;20041;-77
2022/02/09 04:11:06;;;;;;;7.00;1.70;;;;;;;9.30;68.03;101302.13;2089433;28;20037;-78
2022/02/09 04:12:24;;;;;;;8.57;1.50;;;;;;;9.32;68.11;101291.66;2090762;28;20106;-78
2022/02/09 04:13:34;;;;;;;4.20;1.23;;;;;;;9.26;67.53;101286.16;2093852;28;20048;-77
2022/02/09 04:14:47;;;;;;;5.05;1.33;;;;;;;9.23;67.75;101305.44;2097265;28;20510;-77
2022/02/09 04:15:57;;;;;;;6.43;1.30;;;;;;;9.25;68.04;101314.28;2081211;28;20509;-78
2022/02/09 04:17:11;;;;;;;5.40;1.00;;;;;;;9.23;68.36;101299.28;2097726;28;20037;-77
2022/02/09 04:18:23;;;;;;;4.78;1.55;;;;;;;9.23;68.20;101304.53;2098845;28;20051;-77
2022/02/09 04:19:30;;;;;;;5.53;1.13;;;;;;;9.25;68.00;101310.75;2103224;28;20043;-77
2022/02/09 04:22:29;;;;;;;11.57;1.48;;;;;;;9.25;67.98;101305.50;2101053;28;20064;-77
2022/02/09 04:36:54;;;;;;;4.88;1.27;;;;;;;8.65;73.32;101350.13;2090812;28;20056;-79
2022/02/09 04:38:04;;;;;;;6.60;1.30;;;;;;;8.66;73.55;101346.66;2093330;28;20080;-79
2022/02/09 04:39:13;;;;;;;5.35;1.30;;;;;;;8.70;73.60;101354.69;2087509;28;20041;-79
2022/02/09 04:40:32;;;;;;;6.85;1.48;;;;;;;8.71;73.52;101335.44;2080837;28;20048;-78
2022/02/09 04:41:53;;;;;;;10.73;2.42;;;;;;;8.75;73.50;101337.28;2080316;28;20103;-81
2022/02/09 04:43:20;;;;;;;9.07;1.67;;;;;;;8.76;73.63;101344.34;2080974;28;20059;-81
2022/02/09 04:46:00;;;;;;;6.85;1.48;;;;;;;8.79;73.89;101364.63;2099547;28;20045;-79
2022/02/09 04:47:20;;;;;;;5.65;2.30;;;;;;;8.84;74.21;101356.88;2093253;28;20075;-79
2022/02/09 04:48:37;;;;;;;4.47;1.92;;;;;;;8.84;74.23;101357.78;2073859;28;20104;-79
2022/02/09 04:49:58;;;;;;;2.95;1.00;;;;;;;8.86;74.30;101348.16;2082390;28;20041;-80
2022/02/09 04:51:12;;;;;;;8.98;1.67;;;;;;;8.88;74.46;101357.00;2088894;28;20041;-79
2022/02/09 04:52:25;;;;;;;4.97;1.38;;;;;;;8.93;74.29;101368.56;2089366;28;20120;-77
2022/02/09 04:54:49;;;;;;;6.35;1.65;;;;;;;8.95;74.39;101366.00;2093058;28;20040;-77
2022/02/09 04:55:56;;;;;;;6.45;1.75;;;;;;;8.96;74.48;101375.69;2078334;28;20041;-79
2022/02/09 04:57:02;;;;;;;9.48;1.40;;;;;;;8.99;74.16;101378.44;2077412;28;20037;-78
2022/02/09 04:58:12;;;;;;;7.53;1.65;;;;;;;9.04;74.45;101371.56;2086815;28;20859;-78
2022/02/09 04:59:23;;;;;;;12.88;1.75;;;;;;;9.05;74.41;101373.34;2094758;28;20423;-78
2022/02/09 05:00:32;;;;;;;4.68;1.70;;;;;;;9.08;74.25;101366.44;2095838;28;20032;-78
2022/02/09 05:02:02;;;;;;;9.38;2.78;;;;;;;9.10;74.53;101377.91;2096217;28;20115;-78
2022/02/09 05:04:36;;;;;;;4.00;1.45;;;;;;;9.14;73.94;101363.09;2082099;28;20044;-77
2022/02/09 05:18:51;;;;;;;5.45;1.10;;;;;;;9.22;70.17;101395.84;2061249;28;20050;-77
2022/02/09 05:22:52;;;;;;;2.40;0.70;;;;;;;9.20;69.02;101410.69;2054954;28;20047;-77
2022/02/09 05:24:06;;;;;;;2.35;1.08;;;;;;;9.18;69.08;101396.59;2082332;28;20045;-77
2022/02/09 05:25:38;;;;;;;4.68;1.52;;;;;;;9.18;68.51;101391.34;2079692;28;20143;-78
2022/02/09 05:26:48;;;;;;;1.73;0.70;;;;;;;9.18;67.80;101401.88;2086513;28;20037;-77
2022/02/09 05:27:52;;;;;;;2.63;1.27;;;;;;;9.18;68.29;101422.94;2084941;28;20047;-76
2022/02/09 05:28:55;;;;;;;5.25;1.52;;;;;;;9.19;68.75;101419.44;2095699;28;20551;-77
2022/02/09 05:29:59;;;;;;;4.90;0.95;;;;;;;9.25;68.41;101424.94;2096324;28;20119;-77
2022/02/09 05:31:03;;;;;;;8.70;1.90;;;;;;;9.24;68.27;101419.59;2097649;28;20044;-77
2022/02/09 05:32:05;;;;;;;2.55;1.05;;;;;;;9.24;67.56;101423.13;2096998;28;20052;-77
2022/02/09 05:33:08;;;;;;;3.83;0.82;;;;;;;9.27;67.28;101424.94;2081013;28;20042;-77
2022/02/09 05:34:10;;;;;;;5.07;1.45;;;;;;;9.27;67.31;101422.31;2079449;28;20041;-78
2022/02/09 05:35:13;;;;;;;4.47;1.80;;;;;;;9.27;66.66;101443.38;2079320;28;20041;-77
2022/02/09 05:36:16;;;;;;;3.33;0.95;;;;;;;9.27;66.88;101430.22;2091221;28;20077;-78
2022/02/09 05:37:18;;;;;;;4.10;1.52;;;;;;;9.29;67.06;101439.06;2087107;28;20101;-77
2022/02/09 05:38:21;;;;;;;3.90;0.98;;;;;;;9.31;67.22;101429.47;2081740;28;20074;-77
2022/02/09 05:39:22;;;;;;;5.47;1.10;;;;;;;9.33;67.35;101431.31;2075169;28;20052;-76
2022/02/09 05:40:25;;;;;;;2.05;0.73;;;;;;;9.33;66.94;101436.56;2087370;28;20041;-77
2022/02/09 05:41:27;;;;;;;5.28;2.15;;;;;;;9.35;66.96;101424.34;2095599;28;20048;-78
2022/02/09 05:42:31;;;;;;;;;;;;;;;9.39;65.67;101431.50;2096517;28;20052;-76
2022/02/09 05:43:35;;;;;;;7.78;2.08;;;;;;;9.35;65.55;101410.28;2095851;28;19929;-77
2022/02/09 05:44:36;;;;;;;3.53;0.93;;;;;;;9.35;66.21;101445.44;2086451;28;20438;-77
2022/02/09 05:45:58;;;;;;;;;;;;;;;9.37;66.26;101422.66;2095840;28;20047;-77
2022/02/09 05:47:41;;;;;;;3.97;1.10;;;;;;;9.36;66.27;101449.84;2092717;28;20411;-77
2022/02/09 05:49:48;;;;;;;0.85;0.63;;;;;;;9.37;66.11;101433.22;2088072;28;20420;-77
2022/02/09 05:50:56;;;;;;;3.78;0.68;;;;;;;9.38;66.35;101427.09;2078845;28;20037;-77
2022/02/09 05:52:02;;;;;;;8.43;1.75;;;;;;;9.39;65.73;101438.50;2076219;28;20098;-77
2022/02/09 05:53:12;;;;;;;6.82;1.55;;;;;;;9.41;64.96;101447.34;2094912;28;20500;-76
2022/02/09 05:54:27;;;;;;;4.70;1.35;;;;;;;9.42;65.50;101452.69;2092895;28;20532;-77
2022/02/09 05:55:43;;;;;;;3.92;0.73;;;;;;;9.44;65.71;101458.00;2087632;28;20469;-76
2022/02/09 05:56:49;;;;;;;4.97;1.17;;;;;;;9.47;65.44;101453.72;2096412;28;20038;-76
2022/02/09 05:57:53;;;;;;;4.30;1.33;;;;;;;9.43;64.87;101438.66;2099635;28;20063;-77
2022/02/09 05:59:05;;;;;;;5.10;1.67;;;;;;;9.45;64.87;101442.22;2081040;28;20037;-77
2022/02/09 06:00:07;;;;;;;4.47;1.73;;;;;;;9.47;65.40;101426.47;2080777;28;20101;-77
2022/02/09 06:01:21;;;;;;;4.25;0.93;;;;;;;9.50;64.99;101440.66;2086791;28;20041;-77
2022/02/09 06:02:22;;;;;;;7.22;1.52;;;;;;;9.47;64.97;101458.97;2095421;28;20036;-77
2022/02/09 06:03:26;;;;;;;6.25;1.27;;;;;;;9.44;64.68;101453.63;2087116;28;20040;-77
2022/02/09 06:04:29;;;;;;;8.77;2.28;;;;;;;9.45;64.83;101450.13;2095638;28;20127;-77
2022/02/09 06:05:31;;;;;;;4.13;2.00;;;;;;;9.47;65.16;101460.72;2091745;28;20132;-77
2022/02/09 06:06:34;;;;;;;5.90;1.33;;;;;;;9.48;65.10;101450.22;2088465;28;20110;-77
2022/02/09 06:07:35;;;;;;;5.10;1.63;;;;;;;9.49;65.41;101461.66;2092086;28;20048;-77
2022/02/09 06:08:38;;;;;;;;;;;;;;;9.48;65.57;101452.88;2079876;28;20053;-77
2022/02/09 06:09:40;;;;;;;4.25;1.48;;;;;;;9.45;65.99;101458.03;2083035;28;20468;-77
2022/02/09 06:10:50;;;;;;;3.80;1.10;;;;;;;9.40;65.98;101462.28;2082369;28;20037;-77
2022/02/09 06:12:04;;;;;;;9.95;2.38;;;;;;;9.40;66.15;101456.09;2073048;28;20501;-77
2022/02/09 06:13:18;;;;;;;4.35;1.52;;;;;;;9.38;66.25;101461.34;2083396;28;20046;-77
2022/02/09 06:14:41;;;;;;;5.70;1.73;;;;;;;9.39;66.39;101467.47;2094350;28;20044;-76
2022/02/09 06:19:49;;;;;;;2.33;1.08;;;;;;;9.39;65.47;101471.00;2079463;28;20042;-76
2022/02/09 06:20:53;;;;;;;5.22;1.20;;;;;;;9.39;65.78;101465.75;2090832;28;20044;-76
2022/02/09 06:21:55;;;;;;;6.45;1.92;;;;;;;9.41;65.82;101452.63;2102319;28;20187;-76
2022/02/09 06:22:57;;;;;;;6.13;2.33;;;;;;;9.42;65.69;101460.59;2087779;28;20127;-77
2022/02/09 06:23:59;;;;;;;9.00;1.42;;;;;;;9.44;65.67;101458.00;2098229;28;20044;-76
2022/02/09 06:25:02;;;;;;;7.00;1.30;;;;;;;9.45;65.46;101476.47;2091083;28;20566;-77
2022/02/09 06:26:04;;;;;;;6.43;1.42;;;;;;;9.50;65.21;101460.81;2088666;28;20434;-76
2022/02/09 06:27:07;;;;;;;7.57;2.53;;;;;;;9.49;65.41;101466.94;2091987;28;20688;-76
2022/02/09 06:28:08;;;;;;;2.15;0.90;;;;;;;9.50;65.35;101453.81;2089164;28;20110;-77
2022/02/09 06:29:12;;;;;;;9.85;2.55;;;;;;;9.50;64.83;101474.91;2087370;28;20460;-77
2022/02/09 06:30:13;;;;;;;8.13;1.55;;;;;;;9.49;65.24;101483.66;2087364;28;20505;-77
2022/02/09 06:31:16;;;;;;;;;;;;;;;9.53;65.11;101472.34;2091390;28;20400;-77
2022/02/09 06:32:19;;;;;;;8.60;2.92;;;;;;;9.53;65.42;101474.09;2095870;28;19966;-77
2022/02/09 06:33:22;;;;;;;2.28;1.50;;;;;;;9.51;65.71;101471.44;2092216;28;20124;-77
2022/02/09 06:34:23;;;;;;;4.60;1.73;;;;;;;9.54;65.83;101489.94;2093494;28;20052;-77
2022/02/09 06:35:26;;;;;;;6.25;2.33;;;;;;;9.57;66.04;101481.25;2081486;28;20133;-77
2022/02/09 06:36:27;;;;;;;12.00;1.63;;;;;;;9.62;66.29;101481.38;2079312;28;20390;-77
2022/02/09 06:37:39;;;;;;;3.88;1.70;;;;;;;9.65;66.12;101494.69;2082023;28;20045;-77
2022/02/09 06:38:40;;;;;;;7.32;2.05;;;;;;;9.66;65.87;101486.78;2072271;28;20057;-76
2022/02/09 06:39:47;;;;;;;2.67;1.23;;;;;;;9.66;65.58;101491.16;2096158;28;20462;-77
2022/02/09 06:40:53;;;;;;;1.20;0.75;;;;;;;9.66;65.70;101486.78;2099730;28;20048;-77
2022/02/09 06:41:55;;;;;;;10.32;3.45;;;;;;;9.66;65.93;101483.25;2089069;28;20053;-76
2022/02/09 06:42:57;;;;;;;2.67;1.10;;;;;;;9.67;65.85;101483.31;2095117;28;20048;-77
2022/02/09 06:44:00;;;;;;;7.40;1.40;;;;;;;9.67;65.88;101461.31;2085841;28;20036;-76
2022/02/09 06:45:09;;;;;;;4.13;0.80;;;;;;;9.69;65.77;101486.91;2087405;28;20116;-76
2022/02/09 06:46:13;;;;;;;7.60;2.00;;;;;;;9.69;66.01;101508.00;2094554;28;20048;-76
2022/02/09 06:47:14;;;;;;;5.70;1.92;;;;;;;9.65;66.34;101502.59;2092324;28;20529;-77
2022/02/09 06:48:19;;;;;;;;;;;;;;;9.63;66.48;101506.91;2093154;28;20041;-78
2022/02/09 06:49:21;;;;;;;6.50;1.85;;;;;;;9.52;66.64;101515.34;2092411;28;19924;-77
2022/02/09 06:50:31;;;;;;;12.30;3.70;;;;;;;9.50;66.97;101511.78;2090272;28;20041;-77
2022/02/09 06:51:36;;;;;;;20.55;4.75;;;;;;;9.50;67.72;101530.25;2095781;28;20102;-78
2022/02/09 06:52:42;;;;;;;12.82;4.50;;;;;;;9.38;68.89;101513.16;2090999;28;20052;-77
2022/02/09 06:53:50;;;;;;;11.90;4.95;;;;;;;9.25;69.70;101527.66;2086831;28;20045;-77
2022/02/09 06:55:10;;;;;;;11.23;6.00;;;;;;;9.18;69.95;101525.66;2079950;28;20061;-77
2022/02/09 06:56:23;;;;;;;10.57;1.95;;;;;;;9.11;70.70;101531.56;2084666;28;20111;-77
2022/02/09 06:57:33;;;;;;;7.50;1.77;;;;;;;9.05;70.65;101531.38;2092582;28;20033;-76
2022/02/09 06:59:55;;;;;;;6.28;2.00;;;;;;;9.02;70.11;101531.25;2079395;28;20061;-78
2022/02/09 07:00:56;;;;;;;5.95;2.83;;;;;;;9.03;70.21;101539.22;2070532;28;20042;-78
2022/02/09 07:02:04;;;;;;;;;;;;;;;9.06;70.13;101527.84;2085402;28;20037;-76
2022/02/09 07:03:05;;;;;;;10.32;1.55;;;;;;;9.02;70.09;101489.09;2096164;28;19943;-77
2022/02/09 07:04:09;;;;;;;3.28;1.02;;;;;;;9.04;69.67;101508.50;2110708;28;20546;-76
2022/02/09 07:05:12;;;;;;;8.40;2.38;;;;;;;9.05;69.57;101520.84;2086620;28;20037;-77
2022/02/09 07:06:15;;;;;;;6.88;2.08;;;;;;;9.06;69.68;101519.97;2079613;28;20172;-76
2022/02/09 07:07:18;;;;;;;5.03;1.73;;;;;;;9.08;69.55;101527.09;2095547;28;20041;-77
2022/02/09 07:08:19;;;;;;;7.68;2.00;;;;;;;9.10;69.44;101535.03;2097533;28;20049;-76
2022/02/09 07:09:22;;;;;;;5.78;2.72;;;;;;;9.12;69.67;101528.97;2097535;28;20045;-76
2022/02/09 07:10:23;;;;;;;10.00;2.42;;;;;;;9.17;69.58;101529.13;2096849;28;20093;-77
2022/02/09 07:11:26;;;;;;;4.25;2.80;;;;;;;9.18;69.37;101521.28;2088884;28;20061;-77
2022/02/09 07:12:28;;;;;;;8.77;2.70;;;;;;;9.20;69.52;101516.94;2089111;28;20049;-78
2022/02/09 07:13:31;;;;;;;9.85;2.63;;;;;;;9.24;69.54;101496.88;2095407;28;20036;-78
2022/02/09 07:14:32;;;;;;;3.75;1.58;;;;;;;9.29;69.59;101511.09;2073445;28;20049;-77
2022/02/09 07:15:40;;;;;;;7.90;2.13;;;;;;;9.35;69.55;101510.41;2080558;28;20048;-77
2022/02/09 07:16:42;;;;;;;10.75;3.80;;;;;;;9.40;69.53;101506.16;2105731;28;20074;-77
2022/02/09 07:17:45;;;;;;;5.35;2.33;;;;;;;9.43;69.30;101499.28;2097035;28;20792;-78
2022/02/09 07:18:48;;;;;;;5.20;2.25;;;;;;;9.44;69.07;101487.88;2081757;28;20033;-77
2022/02/09 07:19:56;;;;;;;8.32;2.30;;;;;;;9.48;68.44;101516.13;2083326;28;20048;-76
2022/02/09 07:21:03;;;;;;;6.60;2.00;;;;;;;9.50;68.42;101485.44;2080918;28;20044;-77
2022/02/09 07:22:06;;;;;;;11.70;3.10;;;;;;;9.49;67.75;101514.38;2081899;28;20485;-77
2022/02/09 07:23:17;;;;;;;7.38;2.30;;;;;;;9.51;67.62;101504.78;2080615;28;20041;-77
2022/02/09 07:24:21;;;;;;;3.20;1.17;;;;;;;9.51;67.73;101513.59;2088533;28;20055;-77
2022/02/09 07:25:30;;;;;;;3.67;1.48;;;;;;;9.54;66.87;101511.03;2088978;28;20037;-77
2022/02/09 07:26:48;;;;;;;4.03;1.75;;;;;;;9.58;66.85;101507.63;2096963;28;20037;-77
2022/02/09 07:27:51;;;;;;;5.13;1.52;;;;;;;9.57;66.22;101491.81;2090164;28;20578;-76
2022/02/09 07:28:53;;;;;;;5.45;2.25;;;;;;;9.57;65.99;101518.16;2096839;28;20120;-76
2022/02/09 07:29:55;;;;;;;5.50;1.88;;;;;;;9.58;65.93;101512.03;2096614;28;20063;-77
2022/02/09 07:30:58;;;;;;;8.38;2.25;;;;;;;9.59;65.62;101517.34;2080027;28;20404;-77
2022/02/09 07:32:00;;;;;;;7.07;1.45;;;;;;;9.62;65.55;101513.03;2079778;28;20045;-77
2022/02/09 07:33:04;;;;;;;3.22;1.73;;;;;;;9.65;65.57;101511.38;2088440;28;20106;-77
2022/02/09 07:34:07;;;;;;;3.85;1.85;;;;;;;9.68;65.47;101474.56;2092126;28;20041;-77
2022/02/09 07:35:12;;;;;;;6.05;1.90;;;;;;;9.71;64.46;101498.41;2079545;28;20045;-76
2022/02/09 07:36:16;;;;;;;3.63;1.92;;;;;;;9.73;64.65;101496.69;2087716;28;20072;-77
2022/02/09 07:37:17;;;;;;;3.17;1.23;;;;;;;9.72;64.23;101502.78;2096345;28;20036;-78
2022/02/09 07:38:20;;;;;;;2.83;1.27;;;;;;;9.75;64.23;101525.75;2097198;28;20465;-77
2022/02/09 07:39:22;;;;;;;5.45;2.00;;;;;;;9.76;64.50;101532.81;2098459;28;20041;-77
2022/02/09 07:40:25;;;;;;;5.63;2.00;;;;;;;9.78;64.03;101524.06;2096253;28;20488;-76
2022/02/09 07:41:26;;;;;;;13.27;2.22;;;;;;;9.80;63.91;101513.59;2089812;28;20041;-77
2022/02/09 07:42:31;;;;;;;5.43;1.75;;;;;;;9.81;64.09;101520.66;2096070;28;20036;-77
2022/02/09 07:43:44;;;;;;;8.48;1.83;;;;;;;9.83;64.14;101511.06;2101954;28;20047;-77
2022/02/09 07:44:57;;;;;;;3.47;2.17;;;;;;;9.82;63.38;101514.53;2097790;28;20045;-78
2022/02/09 07:46:17;;;;;;;6.90;2.88;;;;;;;9.81;63.58;101504.84;2089819;28;20045;-77
2022/02/09 07:47:39;;;;;;;15.05;2.40;;;;;;;9.81;62.75;101523.28;2082075;28;20481;-77
2022/02/09 07:48:52;;;;;;;4.70;1.55;;;;;;;9.78;63.42;101525.84;2086668;28;20051;-77
2022/02/09 07:50:15;;;;;;;3.88;1.60;;;;;;;9.75;63.44;101534.53;2097787;28;20523;-77
2022/02/09 07:51:38;;;;;;;6.25;1.73;;;;;;;9.74;63.47;101539.75;2095110;28;20699;-76
2022/02/09 07:52:51;;;;;;;2.63;1.45;;;;;;;9.69;63.85;101534.34;2091817;28;20037;-76
2022/02/09 07:54:00;;;;;;;6.30;2.90;;;;;;;9.70;63.93;101538.78;2079932;28;20048;-77
2022/02/09 07:55:02;;;;;;;5.57;2.35;;;;;;;9.66;64.22;101539.53;2072597;28;20038;-77
2022/02/09 07:56:04;;;;;;;5.88;1.85;;;;;;;9.66;64.31;101541.25;2091656;28;20040;-77
2022/02/09 07:57:07;;;;;;;2.88;2.10;;;;;;;9.65;64.48;101537.72;2088372;28;20037;-76
2022/02/09 07:58:09;;;;;;;10.77;4.65;;;;;;;9.66;64.90;101539.53;2077456;28;20058;-77
2022/02/09 07:59:13;;;;;;;9.10;2.70;;;;;;;9.68;64.91;101540.47;2084098;28;20040;-77
2022/02/09 08:00:15;;;;;;;3.85;2.28;;;;;;;9.69;65.04;101533.47;2096270;28;20048;-76
2022/02/09 08:01:21;;;;;;;7.32;2.38;;;;;;;9.72;64.94;101536.16;2097836;28;20040;-76
2022/02/09 08:02:24;;;;;;;8.60;3.03;;;;;;;9.73;65.30;101551.16;2096053;28;21883;-77
2022/02/09 08:03:25;;;;;;;3.15;1.77;;;;;;;9.74;65.18;101539.75;2087802;28;20748;-78
2022/02/09 08:04:28;;;;;;;;;;;;;;;9.74;64.79;101531.84;2104066;28;20032;-76
2022/02/09 08:05:29;;;;;;;5.97;1.95;;;;;;;9.70;64.46;101551.06;2099152;28;19939;-76
2022/02/09 08:06:34;;;;;;;;;;;;;;;9.69;64.08;101546.63;2088254;28;20052;-76
2022/02/09 08:07:38;;;;;;;6.22;1.85;;;;;;;9.65;63.74;101537.72;2100638;28;19923;-76
2022/02/09 08:08:42;;;;;;;4.15;1.90;;;;;;;9.65;64.15;101553.53;2090824;28;20155;-77
2022/02/09 08:09:47;;;;;;;4.60;1.88;;;;;;;9.67;64.08;101550.97;2072670;28;20447;-76
2022/02/09 08:10:52;;;;;;;8.35;2.45;;;;;;;9.69;63.77;101546.63;2088522;28;20041;-76
2022/02/09 08:12:12;;;;;;;2.05;1.52;;;;;;;9.68;63.47;101545.75;2091350;28;20052;-76
2022/02/09 08:24:09;;;;;;;9.18;2.63;;;;;;;9.74;63.50;101568.75;2094128;28;20124;-76
2022/02/09 08:26:52;;;;;;;4.50;2.75;;;;;;;9.74;63.41;101568.75;2064495;28;20046;-75
2022/02/09 08:28:19;;;;;;;7.40;3.47;;;;;;;9.75;63.55;101576.72;2077996;28;20045;-76
2022/02/09 08:29:26;;;;;;;8.70;2.47;;;;;;;9.75;63.74;101565.28;2082880;28;20556;-76
2022/02/09 08:30:47;;;;;;;4.93;2.13;;;;;;;9.76;63.96;101567.09;2087925;28;20071;-77
2022/02/09 08:33:17;;;;;;;3.30;1.77;;;;;;;9.79;63.74;101567.16;2088240;28;20033;-76
2022/02/09 08:34:18;;;;;;;5.20;1.98;;;;;;;9.80;63.84;101554.03;2080072;28;20057;-76
2022/02/09 08:35:21;;;;;;;;;;;;;;;9.79;63.55;101562.78;2079949;28;20532;-76
2022/02/09 08:36:24;;;;;;;2.33;1.27;;;;;;;9.76;63.66;101569.72;2075902;28;20020;-76
2022/02/09 08:37:25;;;;;;;6.40;2.80;;;;;;;9.73;63.58;101565.22;2079917;28;20046;-75
2022/02/09 08:38:30;;;;;;;6.20;3.05;;;;;;;9.74;63.85;101571.41;2080235;28;20072;-76
2022/02/09 08:39:33;;;;;;;5.13;1.67;;;;;;;9.71;63.80;101537.06;2088212;28;20491;-75
2022/02/09 08:40:36;;;;;;;6.90;2.10;;;;;;;9.69;63.55;101575.63;2087799;28;20683;-76